createdAt,value
2023-05-05T00:01:28.097Z,46.50
2023-05-05T00:03:55.843Z,46.63
2023-05-05T00:06:23.490Z,46.52
2023-05-05T00:08:51.159Z,47.51
2023-05-05T00:11:18.678Z,47.78
2023-05-05T00:13:48.124Z,46.88
2023-05-05T00:16:15.774Z,46.83
2023-05-05T00:18:43.278Z,47.71
2023-05-05T00:21:10.827Z,50.00
2023-05-05T00:23:38.381Z,47.59
2023-05-05T00:26:06.414Z,50.42
2023-05-05T00:28:33.986Z,48.38
2023-05-05T00:31:02.915Z,48.87
2023-05-05T00:33:30.562Z,49.95
2023-05-05T00:35:58.092Z,48.85
2023-05-05T00:38:25.761Z,47.85
2023-05-05T00:40:53.304Z,47.46
2023-05-05T00:43:20.865Z,49.73
2023-05-05T00:45:48.903Z,48.75
2023-05-05T00:48:18.873Z,47.48
2023-05-05T00:50:46.438Z,47.46
2023-05-05T00:53:14.118Z,49.12
2023-05-05T00:55:41.912Z,48.79
2023-05-05T00:58:10.287Z,47.88
2023-05-05T01:00:37.898Z,48.00
2023-05-05T01:03:06.114Z,48.04
2023-05-05T01:05:43.482Z,48.14
2023-05-05T01:08:28.037Z,48.26
2023-05-05T01:11:00.507Z,49.35
2023-05-05T01:13:38.253Z,48.51
2023-05-05T01:16:13.067Z,48.64
2023-05-05T01:18:47.405Z,48.60
2023-05-05T01:21:21.209Z,48.71
2023-05-05T01:24:21.001Z,48.86
2023-05-05T01:26:59.119Z,49.19
2023-05-05T01:29:51.656Z,49.16
2023-05-05T01:32:25.054Z,51.97
2023-05-05T01:34:57.191Z,49.71
2023-05-05T01:37:29.020Z,49.91
2023-05-05T01:39:59.768Z,50.59
2023-05-05T01:42:28.579Z,50.08
2023-05-05T01:44:58.237Z,50.34
2023-05-05T01:47:28.838Z,50.46
2023-05-05T01:49:56.431Z,50.50
2023-05-05T01:52:25.359Z,50.78
2023-05-05T01:54:53.963Z,50.98
2023-05-05T01:57:22.443Z,51.33
2023-05-05T01:59:52.821Z,51.48
2023-05-05T02:02:22.325Z,51.75
2023-05-05T02:04:54.227Z,52.44
2023-05-05T02:07:24.016Z,52.32
2023-05-05T02:09:52.909Z,52.74
2023-05-05T02:12:21.954Z,53.01
2023-05-05T02:14:50.709Z,53.31
2023-05-05T02:17:19.561Z,53.50
2023-05-05T02:19:52.261Z,53.97
2023-05-05T02:22:20.999Z,53.84
2023-05-05T02:24:48.490Z,53.78
2023-05-05T02:27:18.754Z,53.84
2023-05-05T02:29:49.776Z,54.56
2023-05-05T02:32:33.050Z,54.87
2023-05-05T02:35:05.292Z,55.09
2023-05-05T02:37:36.391Z,55.47
2023-05-05T02:40:06.311Z,55.67
2023-05-05T02:42:37.396Z,56.40
2023-05-05T02:45:11.229Z,56.08
2023-05-05T02:47:39.425Z,56.16
2023-05-05T02:50:08.900Z,56.48
2023-05-05T02:52:38.452Z,56.37
2023-05-05T02:55:07.823Z,58.47
2023-05-05T02:57:39.838Z,57.16
2023-05-05T03:00:11.689Z,56.78
2023-05-05T03:02:45.647Z,57.13
2023-05-05T03:05:20.478Z,57.12
2023-05-05T03:07:56.943Z,57.55
2023-05-05T03:10:29.866Z,57.78
2023-05-05T03:13:00.773Z,57.97
2023-05-05T03:15:32.634Z,58.38
2023-05-05T03:18:01.297Z,58.27
2023-05-05T03:20:30.522Z,58.59
2023-05-05T03:23:01.777Z,58.82
2023-05-05T03:25:43.146Z,59.42
2023-05-05T03:28:10.686Z,59.48
2023-05-05T03:30:38.461Z,59.52
2023-05-05T03:33:06.075Z,59.34
2023-05-05T03:35:33.633Z,60.30
2023-05-05T03:38:02.613Z,62.63
2023-05-05T03:40:43.131Z,60.29
2023-05-05T03:43:11.604Z,61.22
2023-05-05T03:45:39.136Z,59.63
2023-05-05T03:48:09.534Z,59.17
2023-05-05T03:50:37.553Z,58.92
2023-05-05T03:53:06.494Z,59.41
2023-05-05T03:55:34.003Z,58.93
2023-05-05T03:58:01.560Z,58.68
2023-05-05T04:00:29.172Z,59.08
2023-05-05T04:02:57.092Z,61.50
2023-05-05T04:05:25.324Z,60.25
2023-05-05T04:07:52.880Z,59.19
2023-05-05T05:20:44.536Z,64.28
2023-05-05T05:23:12.066Z,63.84
2023-05-05T05:25:39.579Z,63.90
2023-05-05T05:28:10.529Z,64.74
2023-05-05T05:30:38.601Z,64.93
2023-05-05T05:33:06.193Z,64.40
2023-05-05T05:35:33.759Z,64.18
2023-05-05T05:38:02.614Z,64.38
2023-05-05T05:40:30.164Z,64.15
2023-05-05T05:42:57.715Z,64.66
2023-05-05T05:45:25.259Z,64.49
2023-05-05T05:47:52.879Z,64.20
2023-05-05T05:50:21.097Z,63.89
2023-05-05T05:52:48.624Z,63.21
2023-05-05T05:55:17.764Z,65.29
2023-05-05T05:57:45.342Z,63.18
2023-05-05T06:00:14.285Z,63.48
2023-05-05T06:02:41.895Z,65.59
2023-05-05T06:05:10.443Z,63.70
2023-05-05T06:07:38.018Z,63.51
2023-05-05T06:10:25.097Z,64.89
2023-05-05T06:12:55.326Z,65.13
2023-05-05T06:15:22.893Z,66.02
2023-05-05T06:17:50.434Z,62.89
2023-05-05T06:20:18.590Z,62.15
2023-05-05T06:22:46.142Z,61.55
2023-05-05T06:25:13.656Z,61.81
2023-05-05T06:27:41.192Z,61.40
2023-05-05T06:30:11.447Z,61.20
2023-05-05T06:32:39.033Z,60.73
2023-05-05T06:35:07.976Z,60.59
2023-05-05T06:37:35.886Z,60.73
2023-05-05T06:40:03.439Z,61.17
2023-05-05T06:42:32.209Z,60.28
2023-05-05T06:44:59.753Z,61.06
2023-05-05T06:47:28.733Z,60.53
2023-05-05T06:49:56.666Z,59.64
2023-05-05T06:52:24.256Z,60.14
2023-05-05T06:54:51.803Z,59.57
2023-05-05T06:57:19.350Z,58.79
2023-05-05T06:59:47.000Z,58.56
2023-05-05T07:02:14.572Z,58.36
2023-05-05T07:04:43.669Z,59.08
2023-05-05T07:07:11.200Z,58.12
2023-05-05T07:09:38.955Z,57.63
2023-05-05T07:12:06.940Z,57.02
2023-05-05T07:14:34.442Z,57.22
2023-05-05T07:17:01.990Z,56.89
2023-05-05T07:19:29.614Z,56.49
2023-05-05T07:21:58.485Z,55.65
2023-05-05T07:24:26.076Z,55.09
2023-05-05T07:26:53.680Z,55.25
2023-05-05T07:29:21.258Z,54.82
2023-05-05T07:31:48.820Z,55.05
2023-05-05T07:34:16.497Z,54.04
2023-05-05T07:36:44.100Z,54.28
2023-05-05T07:39:15.148Z,53.90
2023-05-05T07:41:42.781Z,54.26
2023-05-05T07:44:10.316Z,53.34
2023-05-05T07:46:37.894Z,52.88
2023-05-05T07:49:05.518Z,52.76
2023-05-05T07:51:34.636Z,52.22
2023-05-05T07:54:02.682Z,52.20
2023-05-05T07:56:31.608Z,52.08
2023-05-05T07:58:59.194Z,51.64
2023-05-05T08:01:26.905Z,51.22
2023-05-05T08:03:54.561Z,51.15
2023-05-05T08:06:23.360Z,51.98
2023-05-05T08:08:50.898Z,50.73
2023-05-05T08:11:18.606Z,50.71
2023-05-05T08:13:47.679Z,50.51
2023-05-05T08:16:15.627Z,50.88
2023-05-05T08:18:43.436Z,49.38
2023-05-05T08:21:12.187Z,49.30
2023-05-05T08:23:40.253Z,48.78
2023-05-05T08:26:09.130Z,49.63
2023-05-05T08:28:37.349Z,48.89
2023-05-05T08:31:06.604Z,48.21
2023-05-05T08:33:34.384Z,48.18
2023-05-05T08:36:02.071Z,48.38
2023-05-05T08:38:29.581Z,47.40
2023-05-05T08:40:57.162Z,47.31
2023-05-05T08:43:24.761Z,46.88
2023-05-05T08:45:52.544Z,47.97
2023-05-05T08:48:21.595Z,47.47
2023-05-05T08:50:52.799Z,48.25
2023-05-05T08:53:34.120Z,48.59
2023-05-05T08:56:03.609Z,48.68
2023-05-05T08:58:32.217Z,49.37
2023-05-05T09:01:01.544Z,50.81
2023-05-05T09:03:30.813Z,49.30
2023-05-05T09:05:59.119Z,50.14
2023-05-05T09:08:27.260Z,49.86
2023-05-05T09:10:56.559Z,49.22
2023-05-05T09:13:24.373Z,50.18
2023-05-05T09:15:51.940Z,50.53
2023-05-05T09:18:19.538Z,50.36
2023-05-05T09:20:48.652Z,52.21
2023-05-05T09:23:18.558Z,50.09
2023-05-05T09:25:48.548Z,51.31
2023-05-05T09:28:18.779Z,50.71
2023-05-05T09:30:47.948Z,49.91
2023-05-05T09:33:15.796Z,50.65
2023-05-05T09:35:52.528Z,52.07
2023-05-05T09:38:20.844Z,51.27
2023-05-05T09:40:49.760Z,50.79
2023-05-05T09:43:18.212Z,50.50
2023-05-05T09:45:46.181Z,51.46
2023-05-05T09:48:27.378Z,50.86
2023-05-05T09:50:57.426Z,51.05
2023-05-05T09:53:25.484Z,51.76
2023-05-05T09:55:57.049Z,51.69
2023-05-05T09:58:25.842Z,51.55
2023-05-05T10:00:54.077Z,51.38
2023-05-05T10:03:21.878Z,52.57
2023-05-05T10:05:51.891Z,52.39
2023-05-05T10:08:22.922Z,51.87
2023-05-05T10:10:56.180Z,53.01
2023-05-05T10:13:25.616Z,54.02
2023-05-05T10:15:54.722Z,54.06
2023-05-05T10:18:23.672Z,55.25
2023-05-05T10:20:57.870Z,55.86
2023-05-05T10:23:32.206Z,56.46
2023-05-05T10:26:03.651Z,56.83
2023-05-05T10:28:34.463Z,57.00
2023-05-05T10:31:12.824Z,57.66
2023-05-05T10:33:53.531Z,57.87
2023-05-05T10:36:21.451Z,58.09
2023-05-05T10:38:51.787Z,58.55
2023-05-05T10:41:20.253Z,58.78
2023-05-05T10:43:48.233Z,58.82
2023-05-05T10:46:15.974Z,59.74
2023-05-05T10:48:50.704Z,60.63
2023-05-05T10:51:39.256Z,60.49
2023-05-05T10:54:14.940Z,61.48
2023-05-05T10:56:43.818Z,61.15
2023-05-05T10:59:43.236Z,61.45
2023-05-05T11:02:21.681Z,61.75
2023-05-05T11:05:17.452Z,61.51
2023-05-05T11:07:46.012Z,61.69
2023-05-05T11:10:16.295Z,60.93
2023-05-05T11:13:18.535Z,61.78
2023-05-05T11:15:46.169Z,61.63
2023-05-05T11:18:39.105Z,62.97
2023-05-05T11:21:17.645Z,63.58
2023-05-05T11:23:47.236Z,62.65
2023-05-05T11:26:17.138Z,62.22
2023-05-05T11:28:59.451Z,62.91
2023-05-05T11:31:27.354Z,61.77
2023-05-05T11:33:54.988Z,62.04
2023-05-05T11:36:40.584Z,61.13
2023-05-05T11:39:10.471Z,61.85
2023-05-05T11:42:10.433Z,62.06
2023-05-05T11:44:38.604Z,62.63
2023-05-05T11:47:29.683Z,62.68
2023-05-05T11:49:57.601Z,60.55
2023-05-05T11:52:29.622Z,61.37
2023-05-05T11:55:02.393Z,61.09
2023-05-05T11:57:31.788Z,58.57
2023-05-05T12:00:01.635Z,58.13
2023-05-05T12:02:30.523Z,56.62
2023-05-05T12:04:59.157Z,56.85
2023-05-05T12:07:28.420Z,56.45
2023-05-05T12:09:56.091Z,55.85
2023-05-05T12:12:36.857Z,53.50
2023-05-05T12:15:05.703Z,53.15
2023-05-05T12:17:42.585Z,52.81
2023-05-05T12:20:12.165Z,52.29
2023-05-05T12:22:40.644Z,50.82
2023-05-05T12:25:09.038Z,49.63
2023-05-05T12:27:38.529Z,46.78
2023-05-05T12:30:16.069Z,46.69
2023-05-05T12:32:44.106Z,46.33
2023-05-05T12:35:13.488Z,46.11
2023-05-05T12:37:41.664Z,46.39
2023-05-05T12:40:45.597Z,43.70
2023-05-05T12:43:26.566Z,44.64
2023-05-05T12:46:02.072Z,45.96
2023-05-05T12:48:29.931Z,46.00
2023-05-05T12:51:14.360Z,44.04
2023-05-05T12:53:41.981Z,42.86
2023-05-05T12:56:31.035Z,43.75
2023-05-05T12:59:00.216Z,42.35
2023-05-05T13:01:28.292Z,42.33
2023-05-05T13:04:09.628Z,42.16
2023-05-05T13:06:37.660Z,42.61
2023-05-05T13:09:05.879Z,43.01
2023-05-05T13:11:36.348Z,43.05
2023-05-05T13:14:05.897Z,42.59
2023-05-05T13:16:33.801Z,41.00
2023-05-05T13:19:01.338Z,42.79
2023-05-05T13:21:29.045Z,41.84
2023-05-05T13:24:05.078Z,41.70
2023-05-05T13:26:44.108Z,43.18
2023-05-05T13:29:12.941Z,42.35
2023-05-05T13:31:40.745Z,42.70
2023-05-05T13:34:08.487Z,42.53
2023-05-05T13:36:36.018Z,41.94
2023-05-05T13:39:03.599Z,42.03
2023-05-05T13:41:31.157Z,42.53
2023-05-05T13:43:58.667Z,42.40
2023-05-05T13:46:27.608Z,42.58
2023-05-05T13:48:56.916Z,41.45
2023-05-05T13:51:24.623Z,42.08
2023-05-05T13:53:52.431Z,41.85
2023-05-05T13:56:20.059Z,41.29
2023-05-05T13:58:47.588Z,40.28
2023-05-05T14:01:15.112Z,41.33
2023-05-05T14:03:44.007Z,40.32
2023-05-05T14:06:11.547Z,40.33
2023-05-05T14:08:39.112Z,40.26
2023-05-05T14:11:06.711Z,40.29
2023-05-05T14:13:34.294Z,40.40
2023-05-05T14:16:02.305Z,42.29
2023-05-05T14:18:29.880Z,40.79
2023-05-05T14:20:58.889Z,41.73
2023-05-05T14:23:26.479Z,41.22
2023-05-05T14:25:54.602Z,41.67
2023-05-05T14:28:22.130Z,41.95
2023-05-05T14:30:49.694Z,41.15
2023-05-05T14:33:17.673Z,41.50
2023-05-05T14:35:45.253Z,41.92
2023-05-05T14:38:14.135Z,40.71
2023-05-05T14:40:41.760Z,40.93
2023-05-05T14:43:09.340Z,41.07
2023-05-05T14:45:36.952Z,40.42
2023-05-05T14:48:04.783Z,40.94
2023-05-05T14:50:32.340Z,41.67
2023-05-05T14:52:59.893Z,41.76
2023-05-05T14:55:28.779Z,41.86
2023-05-05T14:57:56.288Z,42.37
2023-05-05T15:00:23.995Z,42.28
2023-05-05T15:02:51.592Z,42.31
2023-05-05T15:05:19.176Z,42.98
2023-05-05T15:07:46.724Z,42.08
2023-05-05T15:10:14.269Z,42.06
2023-05-05T15:12:43.596Z,42.27
2023-05-05T15:15:11.886Z,42.31
2023-05-05T15:17:41.556Z,42.38
2023-05-05T15:20:10.102Z,42.82
2023-05-05T15:22:37.629Z,42.67
2023-05-05T15:25:08.997Z,42.87
2023-05-05T15:27:37.954Z,43.07
2023-05-05T15:30:08.568Z,42.92
2023-05-05T15:32:36.112Z,42.64
2023-05-05T15:35:03.764Z,43.05
2023-05-05T15:37:31.752Z,43.35
2023-05-05T15:39:59.384Z,43.77
2023-05-05T15:42:27.434Z,43.41
2023-05-05T15:44:55.059Z,43.30
2023-05-05T15:47:24.121Z,43.50
2023-05-05T15:49:51.687Z,43.24
2023-05-05T15:52:19.257Z,43.25
2023-05-05T15:54:46.842Z,43.23
2023-05-05T15:57:14.480Z,43.56
2023-05-05T15:59:42.270Z,43.55
2023-05-05T16:02:09.827Z,43.95
2023-05-05T16:04:38.754Z,44.19
2023-05-05T16:07:06.289Z,44.03
2023-05-05T16:09:33.992Z,44.10
2023-05-05T16:12:02.594Z,44.55
2023-05-05T16:14:33.155Z,45.00
2023-05-05T16:17:03.744Z,44.74
2023-05-05T16:19:31.364Z,44.89
2023-05-05T16:22:00.608Z,45.05
2023-05-05T16:24:28.169Z,45.25
2023-05-05T16:26:55.757Z,45.21
2023-05-05T16:29:23.451Z,45.13
2023-05-05T16:31:50.978Z,45.62
2023-05-05T16:34:18.536Z,45.37
2023-05-05T16:36:46.500Z,45.27
2023-05-05T16:39:15.453Z,45.48
2023-05-05T16:41:42.976Z,45.74
2023-05-05T16:44:10.494Z,45.96
2023-05-05T16:46:39.938Z,46.11
2023-05-05T16:49:07.559Z,46.15
2023-05-05T16:51:35.102Z,46.17
2023-05-05T16:54:02.639Z,46.57
2023-05-05T16:56:31.602Z,46.85
2023-05-05T16:58:59.164Z,47.55
2023-05-05T17:01:26.709Z,47.86
2023-05-05T17:03:55.306Z,48.57
2023-05-05T17:06:22.859Z,49.38
2023-05-05T17:08:50.410Z,50.28
2023-05-05T17:11:17.998Z,51.06
2023-05-05T17:13:46.940Z,51.55
2023-05-05T17:16:14.560Z,52.42
2023-05-05T17:18:42.102Z,52.63
2023-05-05T17:21:09.699Z,53.24
2023-05-05T17:23:37.440Z,54.81
2023-05-05T17:26:05.185Z,56.45
2023-05-05T17:28:32.729Z,57.06
2023-05-05T17:31:02.041Z,58.50
2023-05-05T17:33:29.600Z,58.80
2023-05-05T17:35:57.117Z,60.09
2023-05-05T17:38:24.648Z,60.47
2023-05-05T17:40:52.170Z,61.07
2023-05-05T17:43:19.704Z,60.92
2023-05-05T17:45:47.403Z,62.04
2023-05-05T17:48:16.355Z,62.08
2023-05-05T17:50:43.964Z,61.81
2023-05-05T17:53:11.805Z,62.31
2023-05-05T17:55:39.321Z,63.54
2023-05-05T17:58:06.821Z,63.70
2023-05-05T18:00:34.381Z,63.80
2023-05-05T18:03:02.036Z,64.15
2023-05-05T18:05:31.324Z,65.48
2023-05-05T18:07:59.210Z,65.32
2023-05-05T18:10:26.833Z,64.64
2023-05-05T18:12:54.408Z,66.45
2023-05-05T18:15:22.589Z,65.40
2023-05-05T18:17:50.098Z,65.78
2023-05-05T18:20:18.269Z,66.64
2023-05-05T18:22:47.303Z,67.35
2023-05-05T18:25:14.873Z,68.07
2023-05-05T18:27:43.821Z,68.38
2023-05-05T18:30:12.061Z,68.38
2023-05-05T18:32:39.603Z,68.72
2023-05-05T18:35:08.218Z,69.17
2023-05-05T18:37:36.173Z,69.58
2023-05-05T18:40:05.890Z,71.61
2023-05-05T18:42:33.429Z,70.16
2023-05-05T18:45:01.533Z,70.16
2023-05-05T18:47:29.249Z,70.23
2023-05-05T18:49:56.854Z,70.38
2023-05-05T18:52:24.382Z,70.78
2023-05-05T18:54:51.904Z,71.00
2023-05-05T18:57:20.792Z,71.69
2023-05-05T18:59:48.349Z,71.78
2023-05-05T19:02:16.943Z,73.19
2023-05-05T19:04:44.894Z,72.57
2023-05-05T19:07:18.370Z,72.05
2023-05-05T19:09:51.579Z,71.86
2023-05-05T19:12:19.103Z,71.92
2023-05-05T19:14:47.975Z,73.42
2023-05-05T19:17:15.527Z,72.26
2023-05-05T19:19:43.214Z,73.53
2023-05-05T19:22:10.741Z,74.42
2023-05-05T19:24:38.323Z,73.39
2023-05-05T19:27:07.047Z,74.10
2023-05-05T19:29:35.093Z,73.87
2023-05-05T19:32:04.050Z,73.87
2023-05-05T19:34:31.981Z,73.60
2023-05-05T19:37:00.184Z,71.02
2023-05-05T19:39:27.968Z,72.98
2023-05-05T19:41:56.148Z,73.70
2023-05-05T19:44:24.419Z,74.14
2023-05-05T19:46:53.802Z,73.29
2023-05-05T19:49:22.992Z,73.39
2023-05-05T19:51:52.204Z,71.98
2023-05-05T19:54:19.930Z,72.70
2023-05-05T19:56:47.637Z,72.62
2023-05-05T19:59:15.324Z,74.48
2023-05-05T20:01:43.042Z,72.49
2023-05-05T20:04:10.593Z,72.34
2023-05-05T20:06:39.420Z,72.51
2023-05-05T20:09:08.003Z,72.49
2023-05-05T20:11:35.931Z,72.92
2023-05-05T20:14:03.689Z,73.34
2023-05-05T20:16:31.459Z,73.48
2023-05-05T20:18:59.705Z,73.75
2023-05-05T20:21:27.944Z,73.80
2023-05-05T20:23:57.024Z,73.56
2023-05-05T20:26:25.837Z,76.41
2023-05-05T20:28:53.849Z,76.54
2023-05-05T20:31:21.924Z,77.31
2023-05-05T20:33:49.893Z,76.99
2023-05-05T20:36:18.568Z,74.42
2023-05-05T20:38:46.219Z,74.32
2023-05-05T20:41:15.523Z,76.50
2023-05-05T20:43:43.597Z,75.70
2023-05-05T20:46:13.218Z,76.96
2023-05-05T20:48:42.925Z,75.69
2023-05-05T20:51:10.851Z,77.25
2023-05-05T20:53:38.399Z,76.47
2023-05-05T20:56:08.654Z,76.61
2023-05-05T20:58:38.025Z,76.69
2023-05-05T21:01:05.580Z,78.11
2023-05-05T21:03:33.173Z,76.43
2023-05-05T21:06:00.732Z,75.67
2023-05-05T21:08:28.296Z,77.73
2023-05-05T21:10:55.815Z,77.02
2023-05-05T21:13:23.431Z,76.65
2023-05-05T21:15:52.328Z,77.27
2023-05-05T21:18:19.847Z,77.89
2023-05-05T21:20:47.393Z,76.87
2023-05-05T21:23:14.918Z,75.69
2023-05-05T21:25:42.483Z,76.67
2023-05-05T21:28:10.065Z,75.74
2023-05-05T21:30:37.951Z,77.29
2023-05-05T21:33:06.889Z,77.79
2023-05-05T21:35:34.479Z,77.42
2023-05-05T21:38:02.009Z,75.20
2023-05-05T21:40:29.724Z,77.39
2023-05-05T21:42:57.279Z,77.37
2023-05-05T21:45:25.039Z,75.12
2023-05-05T21:47:52.767Z,74.65
2023-05-05T21:50:21.956Z,74.72
2023-05-05T21:52:50.544Z,74.76
2023-05-05T21:55:18.094Z,74.69
2023-05-05T21:57:45.654Z,74.92
2023-05-05T22:00:16.644Z,77.45
2023-05-05T22:02:44.448Z,78.83
2023-05-05T22:05:12.249Z,79.19
2023-05-05T22:07:41.310Z,76.58
2023-05-05T22:10:10.395Z,75.89
2023-05-05T22:12:38.228Z,75.56
2023-05-05T22:15:06.993Z,75.91
2023-05-05T22:17:34.714Z,75.58
2023-05-05T22:20:02.213Z,75.16
2023-05-05T22:22:29.709Z,75.13
2023-05-05T22:24:58.678Z,75.58
2023-05-05T22:27:26.761Z,75.35
2023-05-05T22:29:54.314Z,75.41
2023-05-05T22:32:22.029Z,75.33
2023-05-05T22:34:49.739Z,75.88
2023-05-05T22:37:17.605Z,75.84
2023-05-05T22:39:45.119Z,76.17
2023-05-05T22:42:14.011Z,77.28
2023-05-05T22:44:41.500Z,76.44
2023-05-05T22:47:09.132Z,76.23
2023-05-05T22:49:36.947Z,76.56
2023-05-05T22:52:04.638Z,76.94
2023-05-05T22:54:32.169Z,77.78
2023-05-05T22:56:59.785Z,77.20
2023-05-05T22:59:28.686Z,79.12
2023-05-05T23:01:56.301Z,78.75
2023-05-05T23:04:23.860Z,77.48
2023-05-05T23:06:51.953Z,78.02
2023-05-05T23:09:19.887Z,78.58
2023-05-05T23:11:47.391Z,77.88
2023-05-05T23:14:16.792Z,79.49
2023-05-05T23:16:45.750Z,78.77
2023-05-05T23:19:13.437Z,78.12
2023-05-05T23:21:52.056Z,78.38
2023-05-05T23:24:20.646Z,80.32
2023-05-05T23:26:48.174Z,79.83
2023-05-05T23:29:15.689Z,78.35
2023-05-05T23:31:43.193Z,76.83
2023-05-05T23:34:12.160Z,78.97
2023-05-05T23:36:39.704Z,77.45
2023-05-05T23:39:07.295Z,77.21
2023-05-05T23:41:34.811Z,79.90
2023-05-05T23:44:02.336Z,78.13
2023-05-05T23:46:30.410Z,77.93
2023-05-05T23:48:57.985Z,77.40
2023-05-05T23:51:27.962Z,76.83
2023-05-05T23:53:57.163Z,76.74
2023-05-05T23:56:24.954Z,76.67
2023-05-05T23:58:53.800Z,77.02
